createdAt,value
2018-07-20T00:00:19.130Z,18.40
2018-07-20T00:02:48.189Z,18.40
2018-07-20T00:05:17.314Z,18.30
2018-07-20T00:07:46.489Z,18.30
2018-07-20T00:10:15.596Z,18.30
2018-07-20T00:12:44.691Z,18.20
2018-07-20T00:15:13.935Z,18.20
2018-07-20T00:17:43.027Z,18.20
2018-07-20T00:20:12.179Z,18.20
2018-07-20T00:22:41.218Z,18.10
2018-07-20T00:25:10.316Z,18.20
2018-07-20T00:27:39.329Z,18.20
2018-07-20T00:30:08.439Z,18.10
2018-07-20T00:32:37.682Z,18.10
2018-07-20T00:37:35.646Z,18.10
2018-07-20T00:40:04.773Z,18.00
2018-07-20T00:42:34.057Z,18.00
2018-07-20T00:47:31.817Z,18.00
2018-07-20T00:50:00.949Z,18.00
2018-07-20T00:52:30.050Z,17.90
2018-07-20T00:54:59.139Z,17.90
2018-07-20T00:57:28.237Z,17.90
2018-07-20T00:59:57.477Z,17.80
2018-07-20T01:02:26.600Z,17.80
2018-07-20T01:04:55.724Z,17.80
2018-07-20T01:07:24.852Z,17.80
2018-07-20T01:09:54.096Z,17.80
2018-07-20T01:14:51.976Z,17.70
2018-07-20T01:17:21.091Z,17.70
2018-07-20T01:19:51.344Z,17.70
2018-07-20T01:22:22.413Z,17.70
2018-07-20T01:24:52.300Z,17.70
2018-07-20T01:27:21.346Z,17.60
2018-07-20T01:32:19.130Z,17.60
2018-07-20T01:37:17.079Z,17.60
2018-07-20T01:39:46.331Z,17.50
2018-07-20T01:42:15.412Z,17.60
2018-07-20T01:44:44.534Z,17.50
2018-07-20T01:47:13.636Z,17.50
2018-07-20T01:49:42.707Z,17.50
2018-07-20T01:52:11.855Z,17.50
2018-07-20T01:54:40.886Z,17.40
2018-07-20T01:59:38.741Z,17.40
2018-07-20T02:02:07.849Z,17.30
2018-07-20T02:07:05.631Z,17.30
2018-07-20T02:14:32.205Z,17.30
2018-07-20T02:19:30.000Z,17.30
2018-07-20T02:21:59.115Z,17.30
2018-07-20T02:24:28.199Z,17.20
2018-07-20T02:26:57.258Z,17.20
2018-07-20T02:31:55.080Z,17.30
2018-07-20T02:34:24.186Z,17.30
2018-07-20T02:36:53.422Z,17.30
2018-07-20T02:39:22.452Z,17.30
2018-07-20T02:41:51.711Z,17.20
2018-07-20T02:44:20.954Z,17.20
2018-07-20T02:46:50.077Z,17.20
2018-07-20T02:49:19.157Z,17.10
2018-07-20T02:51:48.242Z,17.10
2018-07-20T02:54:17.330Z,17.10
2018-07-20T02:56:46.433Z,17.00
2018-07-20T02:59:15.536Z,17.00
2018-07-20T03:01:44.624Z,17.00
2018-07-20T03:04:13.705Z,17.00
2018-07-20T03:06:42.782Z,17.00
2018-07-20T03:11:42.906Z,17.00
2018-07-20T03:14:12.101Z,17.00
2018-07-20T03:19:09.904Z,17.00
2018-07-20T03:21:39.014Z,17.00
2018-07-20T03:24:08.131Z,16.90
2018-07-20T03:26:37.203Z,16.90
2018-07-20T03:29:06.296Z,17.00
2018-07-20T03:31:35.378Z,17.00
2018-07-20T03:34:04.439Z,17.00
2018-07-20T03:36:33.911Z,17.00
2018-07-20T03:39:03.061Z,17.10
2018-07-20T03:44:00.845Z,17.00
2018-07-20T03:48:58.662Z,17.00
2018-07-20T03:51:27.694Z,17.00
2018-07-20T03:53:56.842Z,17.00
2018-07-20T03:56:25.995Z,17.00
2018-07-20T03:58:54.995Z,17.00
2018-07-20T04:06:21.505Z,17.10
2018-07-20T04:08:50.669Z,17.10
2018-07-20T04:11:19.726Z,17.20
2018-07-20T04:13:48.887Z,17.20
2018-07-20T04:16:18.002Z,17.30
2018-07-20T04:18:47.184Z,17.30
2018-07-20T04:21:16.307Z,17.30
2018-07-20T04:23:45.399Z,17.40
2018-07-20T04:26:14.471Z,17.50
2018-07-20T04:28:43.670Z,17.50
2018-07-20T04:31:12.800Z,17.60
2018-07-20T04:33:41.914Z,17.70
2018-07-20T04:38:39.684Z,17.90
2018-07-20T04:41:08.777Z,17.90
2018-07-20T04:43:37.842Z,18.00
2018-07-20T04:46:06.926Z,18.00
2018-07-20T04:48:36.048Z,18.10
2018-07-20T04:51:05.221Z,18.20
2018-07-20T04:53:34.420Z,18.20
2018-07-20T04:56:03.514Z,18.30
2018-07-20T04:58:32.600Z,18.30
2018-07-20T05:01:01.644Z,18.40
2018-07-20T05:05:59.538Z,18.50
2018-07-20T05:10:57.483Z,18.60
2018-07-20T05:13:26.574Z,18.70
2018-07-20T05:15:55.669Z,18.80
2018-07-20T05:20:45.063Z,18.90
2018-07-20T05:23:14.155Z,19.00
2018-07-20T05:25:43.318Z,19.10
2018-07-20T05:28:12.395Z,19.20
2018-07-20T05:30:41.458Z,19.20
2018-07-20T05:35:39.317Z,19.40
2018-07-20T05:38:08.459Z,19.50
2018-07-20T05:40:37.565Z,19.50
2018-07-20T05:43:06.700Z,19.60
2018-07-20T05:45:35.816Z,19.70
2018-07-20T05:48:05.007Z,19.80
2018-07-20T05:50:34.115Z,19.90
2018-07-20T05:53:03.151Z,20.10
2018-07-20T05:55:32.225Z,20.30
2018-07-20T05:58:01.567Z,20.40
2018-07-20T06:00:30.658Z,20.50
2018-07-20T06:02:59.687Z,20.60
2018-07-20T06:05:28.991Z,20.60
2018-07-20T06:10:26.945Z,20.80
2018-07-20T06:12:56.183Z,20.90
2018-07-20T06:15:25.265Z,21.00
2018-07-20T06:17:54.388Z,21.30
2018-07-20T06:20:23.424Z,21.40
2018-07-20T06:22:52.632Z,21.40
2018-07-20T06:25:21.788Z,21.50
2018-07-20T06:27:50.917Z,21.70
2018-07-20T06:30:20.040Z,21.70
2018-07-20T06:32:49.377Z,21.60
2018-07-20T06:35:18.437Z,21.40
2018-07-20T06:40:16.298Z,21.40
2018-07-20T06:42:45.425Z,21.50
2018-07-20T06:45:14.505Z,21.40
2018-07-20T06:47:44.451Z,21.50
2018-07-20T06:50:15.472Z,21.60
2018-07-20T06:55:13.997Z,21.90
2018-07-20T06:57:43.277Z,21.90
2018-07-20T07:00:12.430Z,22.00
2018-07-20T07:02:42.909Z,21.90
2018-07-20T07:05:12.259Z,21.80
2018-07-20T07:07:41.475Z,21.80
2018-07-20T07:10:10.590Z,21.90
2018-07-20T07:15:08.449Z,22.10
2018-07-20T07:17:37.573Z,22.10
2018-07-20T07:20:06.627Z,22.20
2018-07-20T07:22:35.755Z,22.40
2018-07-20T07:25:05.007Z,22.50
2018-07-20T07:27:34.174Z,22.80
2018-07-20T07:30:03.442Z,22.90
2018-07-20T07:35:01.405Z,23.20
2018-07-20T07:37:30.517Z,23.60
2018-07-20T07:39:59.868Z,23.80
2018-07-20T07:42:29.293Z,23.60
2018-07-20T07:44:58.525Z,23.20
2018-07-20T07:49:56.460Z,22.90
2018-07-20T07:52:25.509Z,23.20
2018-07-20T07:54:54.886Z,23.40
2018-07-20T07:57:23.932Z,23.40
2018-07-20T07:59:52.982Z,23.40
2018-07-20T08:02:22.149Z,23.30
2018-07-20T08:04:51.256Z,23.20
2018-07-20T08:07:20.400Z,23.30
2018-07-20T08:09:49.681Z,23.30
2018-07-20T08:12:18.909Z,23.40
2018-07-20T08:14:48.011Z,23.50
2018-07-20T08:17:17.333Z,23.50
2018-07-20T08:19:46.486Z,23.40
2018-07-20T08:22:15.572Z,23.60
2018-07-20T08:24:44.655Z,23.90
2018-07-20T08:29:42.683Z,24.00
2018-07-20T08:32:11.859Z,24.10
2018-07-20T08:34:40.967Z,23.90
2018-07-20T08:37:10.109Z,23.90
2018-07-20T08:39:39.395Z,23.90
2018-07-20T08:42:09.694Z,23.90
2018-07-20T08:44:38.940Z,24.00
2018-07-20T08:47:08.019Z,24.10
2018-07-20T08:49:37.091Z,24.00
2018-07-20T08:52:06.385Z,24.00
2018-07-20T08:54:35.459Z,24.00
2018-07-20T08:57:04.494Z,24.10
2018-07-20T08:59:33.652Z,23.90
2018-07-20T09:02:02.745Z,24.00
2018-07-20T09:04:31.767Z,24.00
2018-07-20T09:07:00.874Z,24.20
2018-07-20T09:09:30.020Z,24.00
2018-07-20T09:11:59.140Z,24.30
2018-07-20T09:14:28.163Z,24.50
2018-07-20T09:16:57.891Z,24.60
2018-07-20T09:22:05.676Z,24.40
2018-07-20T09:24:34.980Z,24.60
2018-07-20T09:27:04.096Z,24.60
2018-07-20T09:34:30.695Z,24.80
2018-07-20T09:37:00.813Z,24.80
2018-07-20T09:39:29.965Z,24.70
2018-07-20T09:41:59.024Z,24.80
2018-07-20T09:44:28.378Z,25.00
2018-07-20T09:49:26.978Z,24.90
2018-07-20T09:54:27.217Z,24.90
2018-07-20T09:59:25.382Z,25.30
2018-07-20T10:01:54.497Z,25.50
2018-07-20T10:04:23.835Z,25.50
2018-07-20T10:06:52.914Z,25.40
2018-07-20T10:09:22.276Z,25.30
2018-07-20T10:11:51.364Z,25.40
2018-07-20T10:14:20.562Z,25.70
2018-07-20T10:16:49.671Z,25.90
2018-07-20T10:19:18.782Z,26.00
2018-07-20T10:26:45.968Z,25.40
2018-07-20T10:34:12.583Z,25.50
2018-07-20T10:36:42.190Z,25.70
2018-07-20T10:39:11.731Z,25.80
2018-07-20T10:41:41.033Z,25.70
2018-07-20T10:46:39.189Z,26.00
2018-07-20T10:49:08.751Z,26.00
2018-07-20T10:51:38.065Z,25.70
2018-07-20T10:54:07.485Z,25.70
2018-07-20T10:56:37.424Z,25.80
2018-07-20T10:59:06.425Z,25.80
2018-07-20T11:01:35.713Z,25.90
2018-07-20T11:04:04.804Z,26.00
2018-07-20T11:06:33.957Z,26.00
2018-07-20T11:09:03.135Z,26.10
2018-07-20T11:14:00.903Z,26.10
2018-07-20T11:18:59.135Z,26.20
2018-07-20T11:21:28.211Z,26.10
2018-07-20T11:23:58.195Z,26.40
2018-07-20T11:26:27.741Z,26.60
2018-07-20T11:28:57.981Z,26.80
2018-07-20T11:31:28.803Z,26.80
2018-07-20T11:33:59.363Z,26.60
2018-07-20T11:36:38.356Z,26.50
2018-07-20T11:39:11.021Z,26.60
2018-07-20T11:41:40.438Z,26.80
2018-07-20T11:44:12.506Z,26.80
2018-07-20T11:46:51.902Z,26.80
2018-07-20T11:54:23.924Z,27.00
2018-07-20T11:59:29.046Z,27.20
2018-07-20T12:02:00.273Z,27.40
2018-07-20T12:04:30.258Z,27.70
2018-07-20T12:06:59.626Z,27.40
2018-07-20T12:09:32.167Z,27.40
2018-07-20T12:12:05.046Z,27.30
2018-07-20T12:14:34.328Z,27.10
2018-07-20T12:17:05.325Z,26.90
2018-07-20T12:19:37.143Z,27.00
2018-07-20T12:22:06.606Z,27.50
2018-07-20T12:24:35.709Z,27.30
2018-07-20T12:27:05.036Z,28.20
2018-07-20T12:29:37.223Z,29.10
2018-07-20T12:32:09.074Z,29.60
2018-07-20T12:34:46.296Z,29.20
2018-07-20T12:37:26.038Z,30.00
2018-07-20T12:42:41.498Z,29.70
2018-07-20T12:45:11.906Z,30.40
2018-07-20T12:47:45.720Z,31.00
2018-07-20T12:50:16.223Z,31.10
2018-07-20T12:57:47.664Z,31.30
2018-07-20T13:02:47.402Z,33.70
2018-07-20T13:05:17.355Z,34.40
2018-07-20T13:07:46.506Z,32.90
2018-07-20T13:12:55.566Z,30.90
2018-07-20T13:15:25.254Z,29.60
2018-07-20T13:17:54.650Z,29.00
2018-07-20T13:20:23.902Z,30.00
2018-07-20T13:22:53.069Z,31.70
2018-07-20T13:25:22.138Z,31.30
2018-07-20T13:27:51.553Z,31.20
2018-07-20T13:30:20.731Z,31.90
2018-07-20T13:32:50.188Z,33.10
2018-07-20T13:35:20.471Z,34.00
2018-07-20T13:37:49.834Z,34.20
2018-07-20T13:40:18.884Z,35.40
2018-07-20T13:42:48.042Z,36.90
2018-07-20T13:45:17.173Z,37.40
2018-07-20T13:47:46.283Z,35.60
2018-07-20T13:50:15.888Z,33.30
2018-07-20T13:52:45.054Z,32.10
2018-07-20T13:55:14.236Z,33.10
2018-07-20T13:57:43.624Z,32.80
2018-07-20T14:00:12.761Z,32.70
2018-07-20T14:02:42.090Z,32.40
2018-07-20T14:05:11.224Z,33.20
2018-07-20T14:07:40.379Z,33.90
2018-07-20T14:10:09.614Z,33.60
2018-07-20T14:12:39.138Z,34.80
2018-07-20T14:15:09.033Z,34.60
2018-07-20T14:17:38.162Z,33.50
2018-07-20T14:22:37.510Z,34.70
2018-07-20T14:25:06.746Z,35.10
2018-07-20T14:27:35.857Z,36.00
2018-07-20T14:30:05.555Z,37.10
2018-07-20T14:32:34.633Z,36.70
2018-07-20T14:35:03.790Z,37.40
2018-07-20T14:37:32.875Z,37.60
2018-07-20T14:40:01.992Z,37.70
2018-07-20T14:42:31.324Z,37.40
2018-07-20T14:45:00.460Z,37.40
2018-07-20T14:49:58.491Z,38.00
2018-07-20T14:52:27.568Z,36.60
2018-07-20T14:54:56.746Z,38.00
2018-07-20T14:57:25.871Z,36.80
2018-07-20T14:59:54.905Z,37.00
2018-07-20T15:02:24.097Z,37.30
2018-07-20T15:04:53.172Z,37.20
2018-07-20T15:07:22.934Z,38.00
2018-07-20T15:09:52.042Z,38.10
2018-07-20T15:12:21.315Z,38.20
2018-07-20T15:17:19.174Z,40.90
2018-07-20T15:19:48.328Z,41.40
2018-07-20T15:22:18.659Z,41.20
2018-07-20T15:24:47.886Z,38.30
2018-07-20T15:27:17.142Z,36.50
2018-07-20T15:29:46.291Z,36.40
2018-07-20T15:32:15.438Z,37.50
2018-07-20T15:34:44.572Z,36.90
2018-07-20T15:37:13.697Z,36.70
2018-07-20T15:39:42.939Z,38.00
2018-07-20T15:42:12.171Z,37.30
2018-07-20T15:47:10.281Z,39.60
2018-07-20T15:49:39.389Z,40.20
2018-07-20T15:57:06.433Z,38.50
2018-07-20T15:59:35.531Z,39.10
2018-07-20T16:02:04.919Z,38.60
2018-07-20T16:04:34.588Z,37.90
2018-07-20T16:07:03.852Z,38.70
2018-07-20T16:12:01.684Z,36.90
2018-07-20T16:14:30.925Z,37.00
2018-07-20T16:19:28.708Z,35.40
2018-07-20T16:24:26.610Z,34.40
2018-07-20T16:26:55.707Z,35.50
2018-07-20T16:29:24.828Z,36.10
2018-07-20T16:31:53.924Z,35.60
2018-07-20T16:34:23.040Z,35.70
2018-07-20T16:36:52.670Z,35.30
2018-07-20T16:39:21.761Z,35.90
2018-07-20T16:41:50.847Z,34.80
2018-07-20T16:44:19.994Z,33.70
2018-07-20T16:46:49.088Z,32.50
2018-07-20T16:49:18.215Z,31.30
2018-07-20T16:51:47.292Z,30.70
2018-07-20T16:54:16.359Z,30.30
2018-07-20T16:56:46.423Z,29.80
2018-07-20T16:59:15.564Z,29.60
2018-07-20T17:01:44.677Z,29.10
2018-07-20T17:04:13.780Z,28.70
2018-07-20T17:06:42.866Z,28.50
2018-07-20T17:09:12.630Z,28.60
2018-07-20T17:11:42.079Z,28.60
2018-07-20T17:14:11.620Z,28.60
2018-07-20T17:16:40.634Z,28.50
2018-07-20T17:19:09.747Z,28.60
2018-07-20T17:21:38.946Z,28.50
2018-07-20T17:26:36.820Z,28.40
2018-07-20T17:29:06.127Z,28.40
2018-07-20T17:31:35.389Z,28.20
2018-07-20T17:34:04.568Z,28.00
2018-07-20T17:36:33.626Z,27.70
2018-07-20T17:41:31.706Z,27.60
2018-07-20T17:48:58.370Z,27.40
2018-07-20T17:51:27.421Z,27.20
2018-07-20T17:53:56.535Z,27.10
2018-07-20T17:56:25.792Z,27.10
2018-07-20T17:58:54.850Z,27.10
2018-07-20T18:01:23.998Z,26.90
2018-07-20T18:03:53.016Z,26.80
2018-07-20T18:06:22.116Z,26.80
2018-07-20T18:08:51.246Z,26.80
2018-07-20T18:11:20.637Z,26.70
2018-07-20T18:16:22.657Z,26.40
2018-07-20T18:18:51.864Z,26.40
2018-07-20T18:21:20.911Z,26.20
2018-07-20T18:28:47.347Z,26.00
2018-07-20T18:31:16.518Z,25.90
2018-07-20T18:33:45.720Z,25.70
2018-07-20T18:36:14.773Z,25.60
2018-07-20T18:41:12.672Z,25.30
2018-07-20T18:43:41.837Z,25.10
2018-07-20T18:48:39.691Z,24.90
2018-07-20T18:51:08.881Z,24.80
2018-07-20T18:53:37.988Z,24.70
2018-07-20T18:58:35.878Z,24.50
2018-07-20T19:01:05.025Z,24.40
2018-07-20T19:03:34.090Z,24.30
2018-07-20T19:06:12.531Z,24.20
2018-07-20T19:08:41.619Z,24.20
2018-07-20T19:11:10.746Z,24.10
2018-07-20T19:13:39.904Z,24.00
2018-07-20T19:16:09.198Z,23.90
2018-07-20T19:18:38.316Z,23.80
2018-07-20T19:21:08.815Z,23.70
2018-07-20T19:23:38.023Z,23.60
2018-07-20T19:28:36.286Z,23.50
2018-07-20T19:31:05.424Z,23.40
2018-07-20T19:33:35.140Z,23.30
2018-07-20T19:36:04.368Z,23.20
2018-07-20T19:43:33.043Z,23.00
2018-07-20T19:46:02.932Z,22.90
2018-07-20T19:51:00.754Z,22.80
2018-07-20T19:53:30.016Z,22.70
2018-07-20T20:00:56.894Z,22.50
2018-07-20T20:03:28.290Z,22.50
2018-07-20T20:05:57.370Z,22.50
2018-07-20T20:08:26.471Z,22.40
2018-07-20T20:10:55.617Z,22.30
2018-07-20T20:18:22.495Z,22.20
2018-07-20T20:23:21.153Z,22.10
2018-07-20T20:25:50.256Z,22.00
2018-07-20T20:28:19.339Z,22.00
2018-07-20T20:30:48.575Z,22.00
2018-07-20T20:35:46.407Z,21.90
2018-07-20T20:38:15.600Z,21.90
2018-07-20T20:40:44.729Z,21.80
2018-07-20T20:43:13.830Z,21.80
2018-07-20T20:45:42.906Z,21.80
2018-07-20T20:48:12.055Z,21.70
2018-07-20T20:50:41.114Z,21.70
2018-07-20T20:53:10.631Z,21.70
2018-07-20T20:58:09.969Z,21.60
2018-07-20T21:00:39.399Z,21.60
2018-07-20T21:03:08.429Z,21.60
2018-07-20T21:05:37.496Z,21.50
2018-07-20T21:08:06.783Z,21.40
2018-07-20T21:10:36.328Z,21.40
2018-07-20T21:13:05.567Z,21.30
2018-07-20T21:15:34.669Z,21.30
2018-07-20T21:18:03.735Z,21.30
2018-07-20T21:20:32.918Z,21.20
2018-07-20T21:23:02.197Z,21.20
2018-07-20T21:25:31.446Z,21.10
2018-07-20T21:28:00.547Z,21.10
2018-07-20T21:30:29.695Z,21.10
2018-07-20T21:35:27.972Z,21.00
2018-07-20T21:37:57.113Z,21.00
2018-07-20T21:40:26.165Z,21.00
2018-07-20T21:42:57.099Z,20.90
2018-07-20T21:45:26.233Z,20.90
2018-07-20T21:47:55.351Z,20.90
2018-07-20T21:50:24.494Z,20.90
2018-07-20T21:52:53.601Z,20.80
2018-07-20T21:55:22.718Z,20.80
2018-07-20T21:57:51.835Z,20.80
2018-07-20T22:00:21.004Z,20.70
2018-07-20T22:05:18.954Z,20.70
2018-07-20T22:07:48.048Z,20.70
2018-07-20T22:10:17.137Z,20.60
2018-07-20T22:12:46.348Z,20.50
2018-07-20T22:15:15.488Z,20.50
2018-07-20T22:17:44.696Z,20.50
2018-07-20T22:20:13.978Z,20.40
2018-07-20T22:22:43.116Z,20.40
2018-07-20T22:25:12.303Z,20.40
2018-07-20T22:27:41.389Z,20.30
2018-07-20T22:30:10.977Z,20.30
2018-07-20T22:32:40.027Z,20.20
2018-07-20T22:35:09.460Z,20.20
2018-07-20T22:37:38.584Z,20.10
2018-07-20T22:40:07.778Z,20.10
2018-07-20T22:42:36.890Z,20.00
2018-07-20T22:45:05.973Z,20.00
2018-07-20T22:47:35.134Z,20.00
2018-07-20T22:55:01.765Z,19.90
2018-07-20T22:57:30.889Z,19.80
2018-07-20T23:02:29.543Z,19.70
2018-07-20T23:04:58.730Z,19.70
2018-07-20T23:07:28.016Z,19.60
2018-07-20T23:09:57.131Z,19.60
2018-07-20T23:12:27.092Z,19.60
2018-07-20T23:14:56.248Z,19.50
2018-07-20T23:17:25.902Z,19.50
2018-07-20T23:19:55.543Z,19.50
2018-07-20T23:22:24.588Z,19.40
2018-07-20T23:24:53.758Z,19.40
2018-07-20T23:27:22.881Z,19.30
2018-07-20T23:29:52.631Z,19.20
2018-07-20T23:32:21.791Z,19.20
2018-07-20T23:37:19.630Z,19.10
2018-07-20T23:39:48.681Z,19.10
2018-07-20T23:44:46.479Z,19.10
2018-07-20T23:47:15.593Z,19.00
2018-07-20T23:49:44.691Z,19.00
2018-07-20T23:52:14.375Z,19.00
2018-07-20T23:54:43.734Z,19.00
2018-07-20T23:57:12.844Z,18.90
